createdAt,value
2019-02-18T00:00:32.721Z,101376.45
2019-02-18T00:01:34.340Z,101371.09
2019-02-18T00:02:35.449Z,101373.42
2019-02-18T00:03:36.567Z,101364.03
2019-02-18T00:04:37.790Z,101362.69
2019-02-18T00:05:38.921Z,101368.92
2019-02-18T00:06:40.033Z,101362.27
2019-02-18T00:07:41.141Z,101367.70
2019-02-18T00:08:42.256Z,101362.50
2019-02-18T00:09:43.374Z,101356.14
2019-02-18T00:10:44.500Z,101358.31
2019-02-18T00:11:45.619Z,101357.97
2019-02-18T00:12:46.730Z,101354.80
2019-02-18T00:13:47.846Z,101360.17
2019-02-18T00:14:48.965Z,101359.30
2019-02-18T00:15:50.205Z,101358.31
2019-02-18T00:16:51.633Z,101362.34
2019-02-18T00:17:52.737Z,101357.97
2019-02-18T00:18:53.856Z,101361.86
2019-02-18T00:19:54.976Z,101356.98
2019-02-18T00:20:56.109Z,101347.59
2019-02-18T00:21:57.225Z,101330.16
2019-02-18T00:22:58.441Z,101325.30
2019-02-18T00:23:59.555Z,101339.55
2019-02-18T00:25:00.679Z,101334.18
2019-02-18T00:26:01.805Z,101330.03
2019-02-18T00:27:02.918Z,101334.53
2019-02-18T00:28:04.140Z,101332.84
2019-02-18T00:29:05.251Z,101324.31
2019-02-18T00:30:07.484Z,101319.42
2019-02-18T00:31:08.741Z,101318.44
2019-02-18T00:32:09.860Z,101323.80
2019-02-18T00:33:11.095Z,101323.32
2019-02-18T00:34:12.321Z,101322.45
2019-02-18T00:35:13.437Z,101316.75
2019-02-18T00:36:14.751Z,101318.59
2019-02-18T00:37:24.181Z,101323.45
2019-02-18T00:38:18.985Z,101321.28
2019-02-18T00:39:20.100Z,101321.76
2019-02-18T00:40:21.318Z,101315.56
2019-02-18T00:41:22.580Z,101318.89
2019-02-18T00:42:23.796Z,101326.42
2019-02-18T00:43:24.914Z,101323.39
2019-02-18T00:44:26.133Z,101313.17
2019-02-18T00:45:27.246Z,101314.16
2019-02-18T00:46:28.374Z,101314.29
2019-02-18T00:47:30.026Z,101311.61
2019-02-18T00:48:31.241Z,101296.98
2019-02-18T00:49:32.355Z,101295.80
2019-02-18T00:50:33.577Z,101287.77
2019-02-18T00:51:34.713Z,101278.02
2019-02-18T00:52:35.825Z,101280.70
2019-02-18T00:53:37.041Z,101270.62
2019-02-18T00:54:38.156Z,101279.02
2019-02-18T00:55:39.378Z,101280.83
2019-02-18T00:56:40.505Z,101281.34
2019-02-18T00:57:41.625Z,101289.39
2019-02-18T00:58:43.782Z,101284.86
2019-02-18T00:59:45.072Z,101274.64
2019-02-18T01:00:46.182Z,101277.80
2019-02-18T01:01:47.317Z,101282.34
2019-02-18T01:02:48.473Z,101279.66
2019-02-18T01:03:49.587Z,101277.96
2019-02-18T01:04:50.701Z,101276.97
2019-02-18T01:05:51.921Z,101281.47
2019-02-18T01:06:53.177Z,101279.66
2019-02-18T01:07:54.296Z,101272.59
2019-02-18T01:08:55.408Z,101270.91
2019-02-18T01:09:56.629Z,101265.38
2019-02-18T01:10:57.845Z,101265.89
2019-02-18T01:11:58.978Z,101268.06
2019-02-18T01:13:00.090Z,101261.88
2019-02-18T01:14:01.305Z,101264.55
2019-02-18T01:15:04.322Z,101258.20
2019-02-18T01:16:05.435Z,101252.48
2019-02-18T01:17:06.563Z,101255.52
2019-02-18T01:18:07.671Z,101245.27
2019-02-18T01:19:08.784Z,101242.11
2019-02-18T01:20:11.701Z,101252.84
2019-02-18T01:21:12.918Z,101242.11
2019-02-18T01:22:14.065Z,101242.47
2019-02-18T01:23:15.173Z,101243.30
2019-02-18T01:24:16.299Z,101247.83
2019-02-18T01:25:17.407Z,101240.61
2019-02-18T01:26:18.617Z,101239.27
2019-02-18T01:27:19.751Z,101248.53
2019-02-18T01:28:20.865Z,101241.83
2019-02-18T01:29:22.077Z,101239.14
2019-02-18T01:30:23.196Z,101235.12
2019-02-18T01:31:24.314Z,101238.16
2019-02-18T01:32:25.444Z,101227.08
2019-02-18T01:33:26.592Z,101217.69
2019-02-18T01:34:27.694Z,101214.02
2019-02-18T01:35:28.809Z,101215.84
2019-02-18T01:36:30.044Z,101215.36
2019-02-18T01:37:31.175Z,101210.48
2019-02-18T01:38:32.288Z,101203.94
2019-02-18T01:39:33.407Z,101201.25
2019-02-18T01:40:34.630Z,101197.58
2019-02-18T01:41:35.858Z,101194.55
2019-02-18T01:42:36.988Z,101196.37
2019-02-18T01:43:38.102Z,101192.86
2019-02-18T01:44:39.221Z,101193.34
2019-02-18T01:45:40.438Z,101193.85
2019-02-18T01:46:41.550Z,101189.48
2019-02-18T01:47:42.670Z,101184.12
2019-02-18T01:48:43.896Z,101181.09
2019-02-18T01:49:45.014Z,101181.09
2019-02-18T01:50:46.128Z,101181.56
2019-02-18T01:51:47.355Z,101175.86
2019-02-18T01:52:48.481Z,101174.52
2019-02-18T01:53:49.601Z,101169.31
2019-02-18T01:54:50.714Z,101167.11
2019-02-18T01:55:51.828Z,101155.21
2019-02-18T01:56:52.947Z,101155.21
2019-02-18T01:57:54.076Z,101150.49
2019-02-18T01:58:55.195Z,101157.03
2019-02-18T01:59:56.436Z,101162.56
2019-02-18T02:00:57.552Z,101152.31
2019-02-18T02:01:58.668Z,101149.63
2019-02-18T02:02:59.801Z,101150.14
2019-02-18T02:04:01.022Z,101148.80
2019-02-18T02:05:03.533Z,101148.80
2019-02-18T02:06:04.654Z,101141.75
2019-02-18T02:07:05.868Z,101145.77
2019-02-18T02:08:07.091Z,101144.78
2019-02-18T02:09:10.007Z,101140.41
2019-02-18T02:10:13.129Z,101148.45
2019-02-18T02:11:14.249Z,101141.23
2019-02-18T02:12:15.358Z,101139.91
2019-02-18T02:13:25.281Z,101135.40
2019-02-18T02:14:26.506Z,101129.69
2019-02-18T02:15:27.622Z,101122.48
2019-02-18T02:16:28.732Z,101126.50
2019-02-18T02:17:29.847Z,101120.31
2019-02-18T02:18:30.980Z,101122.13
2019-02-18T02:19:32.113Z,101113.26
2019-02-18T02:20:33.629Z,101110.92
2019-02-18T02:21:34.741Z,101112.27
2019-02-18T02:22:35.962Z,101108.24
2019-02-18T02:23:37.196Z,101108.24
2019-02-18T02:24:38.413Z,101105.05
2019-02-18T02:25:39.524Z,101104.22
2019-02-18T02:26:40.652Z,101097.87
2019-02-18T02:27:41.787Z,101095.19
2019-02-18T02:28:42.940Z,101095.19
2019-02-18T02:29:44.058Z,101097.22
2019-02-18T02:30:45.271Z,101085.64
2019-02-18T02:31:46.378Z,101082.13
2019-02-18T02:32:47.495Z,101077.47
2019-02-18T02:33:48.640Z,101078.46
2019-02-18T02:34:49.758Z,101071.76
2019-02-18T02:35:50.874Z,101076.12
2019-02-18T02:36:52.082Z,101076.47
2019-02-18T02:37:53.197Z,101072.11
2019-02-18T02:38:54.356Z,101069.91
2019-02-18T02:39:55.504Z,101062.72
2019-02-18T02:40:56.590Z,101067.09
2019-02-18T02:41:57.708Z,101064.06
2019-02-18T02:42:58.930Z,101066.74
2019-02-18T02:44:00.053Z,101063.72
2019-02-18T02:45:01.167Z,101059.70
2019-02-18T02:46:02.286Z,101058.01
2019-02-18T02:47:03.400Z,101052.30
2019-02-18T02:48:04.511Z,101045.59
2019-02-18T02:49:05.636Z,101047.41
2019-02-18T02:50:07.258Z,101041.23
2019-02-18T02:51:08.374Z,101039.89
2019-02-18T02:52:09.499Z,101044.90
2019-02-18T02:53:10.714Z,101035.62
2019-02-18T02:54:11.978Z,101036.00
2019-02-18T02:55:13.192Z,101036.48
2019-02-18T02:56:14.802Z,101031.73
2019-02-18T02:57:15.913Z,101033.93
2019-02-18T02:58:17.127Z,101030.39
2019-02-18T02:59:18.360Z,101027.36
2019-02-18T03:00:19.484Z,101024.69
2019-02-18T03:01:20.697Z,101016.30
2019-02-18T03:02:21.808Z,101008.77
2019-02-18T03:03:22.923Z,101007.77
2019-02-18T03:04:24.062Z,101009.11
2019-02-18T03:05:25.164Z,101009.11
2019-02-18T03:06:26.282Z,101008.25
2019-02-18T03:07:27.498Z,101018.14
2019-02-18T03:08:28.616Z,101007.77
2019-02-18T03:09:29.869Z,101004.23
2019-02-18T03:10:30.985Z,101000.21
2019-02-18T03:11:32.105Z,101004.23
2019-02-18T03:12:33.222Z,101004.74
2019-02-18T03:13:34.343Z,100998.88
2019-02-18T03:14:35.477Z,101001.55
2019-02-18T03:15:36.595Z,101000.21
2019-02-18T03:16:37.812Z,100989.48
2019-02-18T03:17:38.925Z,100989.14
2019-02-18T03:18:40.136Z,100996.53
2019-02-18T03:19:41.293Z,100992.68
2019-02-18T03:20:42.401Z,100984.64
2019-02-18T03:21:43.506Z,100982.79
2019-02-18T03:22:44.722Z,100979.12
2019-02-18T03:23:45.832Z,100976.09
2019-02-18T03:25:18.818Z,100974.75
2019-02-18T03:26:19.928Z,100972.07
2019-02-18T03:27:21.617Z,100976.44
2019-02-18T03:28:28.966Z,100973.58
2019-02-18T03:29:42.789Z,100973.23
2019-02-18T03:30:50.252Z,100974.56
2019-02-18T03:31:51.364Z,100969.34
2019-02-18T03:32:52.554Z,100968.00
2019-02-18T03:34:03.099Z,100966.02
2019-02-18T03:35:04.409Z,100965.67
2019-02-18T03:36:05.543Z,100963.50
2019-02-18T03:37:06.945Z,100961.65
2019-02-18T03:38:08.060Z,100958.14
2019-02-18T03:39:09.182Z,100962.16
2019-02-18T03:40:10.294Z,100954.95
2019-02-18T03:41:11.424Z,100951.92
2019-02-18T03:42:12.643Z,100947.42
2019-02-18T03:43:13.751Z,100949.11
2019-02-18T03:44:14.866Z,100942.41
2019-02-18T03:45:15.986Z,100942.41
2019-02-18T03:46:17.113Z,100941.06
2019-02-18T03:47:18.342Z,100940.55
2019-02-18T03:48:19.570Z,100934.50
2019-02-18T03:49:20.681Z,100941.55
2019-02-18T03:50:21.794Z,100937.52
2019-02-18T03:51:22.925Z,100937.52
2019-02-18T03:52:24.039Z,100938.17
2019-02-18T03:53:25.155Z,100922.95
2019-02-18T03:54:29.423Z,100923.78
2019-02-18T03:55:30.536Z,100939.52
2019-02-18T03:56:31.663Z,100923.44
2019-02-18T03:57:32.868Z,100922.74
2019-02-18T03:58:34.374Z,100926.28
2019-02-18T03:59:35.597Z,100917.89
2019-02-18T04:00:36.711Z,100913.02
2019-02-18T04:01:38.129Z,100910.84
2019-02-18T04:02:39.241Z,100900.27
2019-02-18T04:03:40.361Z,100901.95
2019-02-18T04:04:41.580Z,100907.31
2019-02-18T04:05:42.693Z,100905.63
2019-02-18T04:06:43.814Z,100904.28
2019-02-18T04:07:44.931Z,100902.94
2019-02-18T04:08:46.047Z,100910.98
2019-02-18T04:09:47.269Z,100910.64
2019-02-18T04:10:48.388Z,100910.64
2019-02-18T04:11:49.654Z,100905.28
2019-02-18T04:12:50.775Z,100900.27
2019-02-18T04:13:51.889Z,100895.41
2019-02-18T04:14:53.006Z,100891.88
2019-02-18T04:15:54.126Z,100888.20
2019-02-18T04:16:55.252Z,100880.16
2019-02-18T04:17:56.369Z,100877.83
2019-02-18T04:18:57.484Z,100870.30
2019-02-18T04:19:58.710Z,100865.77
2019-02-18T04:20:59.828Z,100860.41
2019-02-18T04:22:01.135Z,100852.38
2019-02-18T04:23:02.236Z,100856.73
2019-02-18T04:24:03.355Z,100859.41
2019-02-18T04:25:05.969Z,100854.06
2019-02-18T04:26:07.093Z,100845.67
2019-02-18T04:27:08.238Z,100854.06
2019-02-18T04:28:09.364Z,100850.04
2019-02-18T04:29:10.763Z,100850.04
2019-02-18T04:30:13.707Z,100847.87
2019-02-18T04:31:14.991Z,100844.67
2019-02-18T04:32:16.133Z,100838.84
2019-02-18T04:33:17.248Z,100841.00
2019-02-18T04:34:18.377Z,100846.36
2019-02-18T04:35:19.500Z,100849.05
2019-02-18T04:36:20.608Z,100847.22
2019-02-18T04:37:21.736Z,100844.03
2019-02-18T04:38:22.856Z,100843.03
2019-02-18T04:39:23.972Z,100839.36
2019-02-18T04:40:25.095Z,100835.85
2019-02-18T04:41:26.210Z,100835.50
2019-02-18T04:42:27.490Z,100828.64
2019-02-18T04:43:28.601Z,100838.53
2019-02-18T04:44:29.717Z,100832.66
2019-02-18T04:45:30.833Z,100834.86
2019-02-18T04:46:31.962Z,100834.00
2019-02-18T04:47:33.070Z,100829.16
2019-02-18T04:48:34.292Z,100833.52
2019-02-18T04:49:35.412Z,100835.69
2019-02-18T04:50:36.528Z,100829.98
2019-02-18T04:51:37.649Z,100821.28
2019-02-18T04:52:38.882Z,100821.28
2019-02-18T04:53:39.996Z,100816.92
2019-02-18T04:54:41.216Z,100817.78
2019-02-18T04:55:42.333Z,100818.61
2019-02-18T04:56:43.555Z,100814.59
2019-02-18T04:57:44.685Z,100821.62
2019-02-18T04:58:45.809Z,100820.63
2019-02-18T04:59:46.936Z,100813.94
2019-02-18T05:00:48.159Z,100811.25
2019-02-18T05:01:49.271Z,100810.25
2019-02-18T05:02:50.500Z,100810.25
2019-02-18T05:03:51.615Z,100812.11
2019-02-18T05:04:52.739Z,100806.75
2019-02-18T05:05:53.850Z,100804.89
2019-02-18T05:06:54.972Z,100799.19
2019-02-18T05:07:56.227Z,100800.05
2019-02-18T05:09:05.041Z,100799.70
2019-02-18T05:10:00.436Z,100793.66
2019-02-18T05:11:01.691Z,100790.98
2019-02-18T05:12:02.813Z,100783.08
2019-02-18T05:13:03.960Z,100778.71
2019-02-18T05:14:05.092Z,100783.25
2019-02-18T05:15:07.791Z,100783.38
2019-02-18T05:16:08.928Z,100781.36
2019-02-18T05:17:10.131Z,100784.38
2019-02-18T05:18:11.299Z,100787.71
2019-02-18T05:19:12.557Z,100778.33
2019-02-18T05:20:13.664Z,100775.31
2019-02-18T05:21:14.778Z,100777.64
2019-02-18T05:22:15.891Z,100777.64
2019-02-18T05:23:17.123Z,100778.98
2019-02-18T05:24:18.246Z,100778.16
2019-02-18T05:25:19.384Z,100777.30
2019-02-18T05:26:20.606Z,100777.30
2019-02-18T05:27:32.816Z,100778.64
2019-02-18T05:28:24.768Z,100781.84
2019-02-18T05:29:25.994Z,100778.64
2019-02-18T05:30:29.430Z,100775.14
2019-02-18T05:31:30.294Z,100770.27
2019-02-18T05:32:31.393Z,100772.94
2019-02-18T05:33:32.659Z,100771.59
2019-02-18T05:34:33.793Z,100769.44
2019-02-18T05:35:34.910Z,100769.91
2019-02-18T05:36:36.021Z,100772.94
2019-02-18T05:37:37.144Z,100766.75
2019-02-18T05:38:38.410Z,100765.89
2019-02-18T05:39:39.629Z,100762.22
2019-02-18T05:40:40.740Z,100767.92
2019-02-18T05:41:41.861Z,100767.09
2019-02-18T05:42:42.972Z,100768.09
2019-02-18T05:43:44.100Z,100766.58
2019-02-18T05:44:45.216Z,100763.91
2019-02-18T05:45:46.328Z,100764.25
2019-02-18T05:46:47.445Z,100766.92
2019-02-18T05:47:48.582Z,100756.72
2019-02-18T05:48:49.792Z,100753.53
2019-02-18T05:49:50.912Z,100752.53
2019-02-18T05:50:52.028Z,100749.85
2019-02-18T05:51:53.153Z,100744.49
2019-02-18T05:52:54.264Z,100739.65
2019-02-18T05:53:55.420Z,100740.12
2019-02-18T05:54:56.532Z,100736.97
2019-02-18T05:55:57.655Z,100741.13
2019-02-18T05:56:58.765Z,100742.47
2019-02-18T05:57:59.878Z,100739.45
2019-02-18T05:59:01.032Z,100738.11
2019-02-18T06:00:03.364Z,100737.28
2019-02-18T06:01:04.476Z,100720.86
2019-02-18T06:02:05.593Z,100723.88
2019-02-18T06:03:06.708Z,100712.82
2019-02-18T06:04:07.878Z,100704.92
2019-02-18T06:05:08.957Z,100701.25
2019-02-18T06:06:10.178Z,100704.27
2019-02-18T06:07:11.294Z,100694.55
2019-02-18T06:08:12.509Z,100692.07
2019-02-18T06:09:13.772Z,100694.23
2019-02-18T06:10:16.973Z,100689.22
2019-02-18T06:11:18.036Z,100684.20
2019-02-18T06:12:19.234Z,100688.77
2019-02-18T06:13:20.408Z,100678.22
2019-02-18T06:14:21.522Z,100680.92
2019-02-18T06:15:22.634Z,100678.30
2019-02-18T06:16:23.750Z,100676.02
2019-02-18T06:17:24.868Z,100672.52
2019-02-18T06:18:25.984Z,100676.42
2019-02-18T06:19:27.118Z,100671.77
2019-02-18T06:20:28.242Z,100664.08
2019-02-18T06:21:29.457Z,100652.72
2019-02-18T06:22:30.573Z,100648.23
2019-02-18T06:23:31.692Z,100652.95
2019-02-18T06:24:32.825Z,100645.78
2019-02-18T06:25:33.944Z,100642.45
2019-02-18T06:26:35.057Z,100651.19
2019-02-18T06:27:36.179Z,100647.86
2019-02-18T06:28:37.294Z,100650.23
2019-02-18T06:29:38.446Z,100645.55
2019-02-18T06:30:39.560Z,100651.61
2019-02-18T06:31:40.671Z,100657.73
2019-02-18T06:32:41.795Z,100657.42
2019-02-18T06:33:43.185Z,100652.40
2019-02-18T06:34:44.320Z,100652.59
2019-02-18T06:35:45.442Z,100647.05
2019-02-18T06:36:46.559Z,100645.56
2019-02-18T06:37:47.672Z,100648.59
2019-02-18T06:38:48.788Z,100647.11
2019-02-18T06:39:49.918Z,100636.36
2019-02-18T06:40:51.043Z,100634.50
2019-02-18T06:41:52.146Z,100634.35
2019-02-18T06:42:53.260Z,100632.00
2019-02-18T06:43:54.478Z,100627.48
2019-02-18T06:44:57.541Z,100624.46
2019-02-18T06:46:06.421Z,100634.02
2019-02-18T06:47:08.332Z,100617.55
2019-02-18T06:48:11.354Z,100625.16
2019-02-18T06:49:14.378Z,100629.37
2019-02-18T06:50:15.509Z,100617.27
2019-02-18T06:51:17.214Z,100612.89
2019-02-18T06:52:18.452Z,100604.16
2019-02-18T06:53:19.569Z,100607.84
2019-02-18T06:54:20.881Z,100605.83
2019-02-18T06:55:22.117Z,100602.80
2019-02-18T06:56:25.136Z,100602.12
2019-02-18T06:57:31.026Z,100605.14
2019-02-18T06:58:34.046Z,100600.09
2019-02-18T06:59:37.088Z,100602.30
2019-02-18T07:00:40.121Z,100601.77
2019-02-18T07:01:48.931Z,100591.02
2019-02-18T07:02:51.955Z,100594.56
2019-02-18T07:03:54.968Z,100581.28
2019-02-18T07:05:00.746Z,100588.00
2019-02-18T07:06:18.624Z,100589.01
2019-02-18T07:07:24.208Z,100590.69
2019-02-18T07:08:27.234Z,100582.28
2019-02-18T07:09:30.252Z,100580.61
2019-02-18T07:10:33.293Z,100585.98
2019-02-18T07:11:39.129Z,100581.44
2019-02-18T07:12:42.144Z,100573.89
2019-02-18T07:13:43.360Z,100581.95
2019-02-18T07:14:44.598Z,100580.61
2019-02-18T07:15:45.718Z,100577.24
2019-02-18T07:16:46.847Z,100581.80
2019-02-18T07:17:47.965Z,100579.45
2019-02-18T07:18:49.086Z,100569.52
2019-02-18T07:19:50.206Z,100575.74
2019-02-18T07:20:51.316Z,100565.81
2019-02-18T07:21:52.446Z,100568.83
2019-02-18T07:22:53.564Z,100567.49
2019-02-18T07:23:54.681Z,100566.48
2019-02-18T07:24:55.905Z,100558.08
2019-02-18T07:25:57.017Z,100564.45
2019-02-18T07:26:58.268Z,100562.29
2019-02-18T07:27:59.387Z,100561.28
2019-02-18T07:29:00.505Z,100557.73
2019-02-18T07:30:01.735Z,100556.23
2019-02-18T07:31:02.940Z,100554.70
2019-02-18T07:32:04.097Z,100554.70
2019-02-18T07:33:05.214Z,100551.52
2019-02-18T07:34:06.436Z,100547.48
2019-02-18T07:35:07.562Z,100549.98
2019-02-18T07:36:08.776Z,100548.98
2019-02-18T07:37:09.929Z,100539.56
2019-02-18T07:38:11.049Z,100543.92
2019-02-18T07:39:12.161Z,100545.12
2019-02-18T07:40:13.274Z,100545.94
2019-02-18T07:41:14.399Z,100544.11
2019-02-18T07:42:15.550Z,100538.53
2019-02-18T07:43:16.768Z,100533.82
2019-02-18T07:44:17.884Z,100535.50
2019-02-18T07:45:19.043Z,100529.63
2019-02-18T07:46:20.116Z,100528.62
2019-02-18T07:47:21.247Z,100529.95
2019-02-18T07:48:22.376Z,100529.80
2019-02-18T07:49:23.492Z,100528.95
2019-02-18T07:50:24.714Z,100528.79
2019-02-18T07:51:25.933Z,100530.27
2019-02-18T07:52:27.164Z,100532.14
2019-02-18T07:53:28.384Z,100535.98
2019-02-18T07:54:29.496Z,100526.41
2019-02-18T07:55:30.608Z,100524.73
2019-02-18T07:56:31.725Z,100523.39
2019-02-18T07:57:32.961Z,100525.06
2019-02-18T07:58:34.181Z,100526.91
2019-02-18T07:59:35.296Z,100531.79
2019-02-18T08:00:36.424Z,100523.72
2019-02-18T08:01:37.547Z,100519.36
2019-02-18T08:02:38.680Z,100521.52
2019-02-18T08:03:39.802Z,100527.76
2019-02-18T08:04:40.917Z,100522.53
2019-02-18T08:05:42.036Z,100515.81
2019-02-18T08:06:43.408Z,100522.05
2019-02-18T08:07:44.536Z,100517.16
2019-02-18T08:08:45.661Z,100511.45
2019-02-18T08:09:46.774Z,100518.70
2019-02-18T08:10:47.959Z,100511.64
2019-02-18T08:11:49.186Z,100509.44
2019-02-18T08:12:50.309Z,100501.05
2019-02-18T08:13:51.428Z,100499.70
2019-02-18T08:14:52.542Z,100499.20
2019-02-18T08:15:53.760Z,100500.88
2019-02-18T08:16:54.877Z,100498.19
2019-02-18T08:17:56.033Z,100495.50
2019-02-18T08:18:57.154Z,100497.51
2019-02-18T08:19:58.372Z,100494.48
2019-02-18T08:20:59.490Z,100500.53
2019-02-18T08:22:00.608Z,100492.45
2019-02-18T08:23:01.737Z,100496.83
2019-02-18T08:24:03.055Z,100501.19
2019-02-18T08:25:07.477Z,100497.48
2019-02-18T08:26:08.687Z,100500.51
2019-02-18T08:27:09.804Z,100496.28
2019-02-18T08:28:10.937Z,100494.94
2019-02-18T08:29:12.054Z,100486.38
2019-02-18T08:30:13.769Z,100492.09
2019-02-18T08:31:14.988Z,100491.56
2019-02-18T08:32:16.108Z,100484.34
2019-02-18T08:33:17.238Z,100479.30
2019-02-18T08:34:18.358Z,100482.31
2019-02-18T08:35:19.587Z,100482.13
2019-02-18T08:36:20.703Z,100479.95
2019-02-18T08:37:21.818Z,100478.94
2019-02-18T08:38:22.972Z,100477.77
2019-02-18T08:39:24.089Z,100479.11
2019-02-18T08:40:25.317Z,100475.56
2019-02-18T08:41:26.429Z,100468.84
2019-02-18T08:42:27.546Z,100473.20
2019-02-18T08:43:28.682Z,100474.55
2019-02-18T08:44:29.904Z,100475.90
2019-02-18T08:45:31.018Z,100469.02
2019-02-18T08:46:32.134Z,100473.05
2019-02-18T08:47:33.250Z,100466.65
2019-02-18T08:48:34.382Z,100466.33
2019-02-18T08:49:35.605Z,100460.42
2019-02-18T08:50:36.722Z,100468.81
2019-02-18T08:51:37.945Z,100464.29
2019-02-18T08:52:39.066Z,100463.77
2019-02-18T08:53:40.198Z,100467.47
2019-02-18T08:54:41.315Z,100456.22
2019-02-18T08:55:42.430Z,100457.56
2019-02-18T08:56:43.551Z,100443.26
2019-02-18T08:57:44.779Z,100449.98
2019-02-18T08:58:45.933Z,100440.57
2019-02-18T08:59:47.049Z,100441.91
2019-02-18T09:00:48.175Z,100440.57
2019-02-18T09:01:49.288Z,100442.24
2019-02-18T09:02:50.403Z,100433.35
2019-02-18T09:03:51.535Z,100431.16
2019-02-18T09:04:52.754Z,100439.55
2019-02-18T09:05:53.871Z,100436.05
2019-02-18T09:06:55.000Z,100434.70
2019-02-18T09:07:56.117Z,100431.16
2019-02-18T09:08:57.778Z,100432.17
2019-02-18T09:09:58.884Z,100426.30
2019-02-18T09:10:59.999Z,100429.15
2019-02-18T09:12:01.115Z,100426.46
2019-02-18T09:13:02.233Z,100418.06
2019-02-18T09:14:03.366Z,100423.60
2019-02-18T09:15:06.485Z,100418.42
2019-02-18T09:16:07.612Z,100409.49
2019-02-18T09:17:08.719Z,100411.03
2019-02-18T09:18:09.835Z,100416.58
2019-02-18T09:19:10.964Z,100404.66
2019-02-18T09:20:12.280Z,100401.64
2019-02-18T09:21:13.400Z,100402.99
2019-02-18T09:22:28.044Z,100396.95
2019-02-18T09:23:42.896Z,100401.48
2019-02-18T09:24:48.689Z,100402.17
2019-02-18T09:25:51.105Z,100397.47
2019-02-18T09:26:52.216Z,100396.48
2019-02-18T09:27:53.430Z,100399.70
2019-02-18T09:28:54.545Z,100399.37
2019-02-18T09:29:55.804Z,100398.19
2019-02-18T09:30:57.018Z,100402.38
2019-02-18T09:31:58.134Z,100398.88
2019-02-18T09:32:59.259Z,100400.70
2019-02-18T09:34:00.552Z,100398.02
2019-02-18T09:35:02.351Z,100391.30
2019-02-18T09:36:03.623Z,100390.48
2019-02-18T09:37:04.736Z,100393.66
2019-02-18T09:38:05.857Z,100395.00
2019-02-18T09:39:15.602Z,100386.60
2019-02-18T09:40:17.908Z,100387.45
2019-02-18T09:41:19.019Z,100378.38
2019-02-18T09:42:21.127Z,100381.55
2019-02-18T09:43:22.237Z,100377.52
2019-02-18T09:44:23.343Z,100378.05
2019-02-18T09:45:24.596Z,100372.47
2019-02-18T09:46:25.818Z,100372.47
2019-02-18T09:47:27.044Z,100364.93
2019-02-18T09:48:28.149Z,100367.62
2019-02-18T09:49:29.259Z,100361.72
2019-02-18T09:50:30.384Z,100371.98
2019-02-18T09:51:31.499Z,100364.24
2019-02-18T09:52:32.613Z,100362.41
2019-02-18T09:53:33.729Z,100362.05
2019-02-18T09:54:34.843Z,100355.69
2019-02-18T09:55:35.993Z,100356.02
2019-02-18T09:56:37.211Z,100348.77
2019-02-18T09:57:38.329Z,100348.27
2019-02-18T09:58:39.442Z,100347.75
2019-02-18T09:59:40.665Z,100347.59
2019-02-18T10:00:41.900Z,100350.27
2019-02-18T10:01:43.354Z,100345.22
2019-02-18T10:02:44.537Z,100349.91
2019-02-18T10:03:45.654Z,100347.55
2019-02-18T10:04:46.775Z,100341.16
2019-02-18T10:05:47.897Z,100349.55
2019-02-18T10:06:49.107Z,100337.78
2019-02-18T10:07:50.221Z,100342.97
2019-02-18T10:08:51.334Z,100340.28
2019-02-18T10:09:52.552Z,100349.52
2019-02-18T10:10:56.118Z,100339.26
2019-02-18T10:11:56.705Z,100340.11
2019-02-18T10:12:59.572Z,100340.11
2019-02-18T10:14:00.940Z,100334.20
2019-02-18T10:15:03.053Z,100335.55
2019-02-18T10:16:04.277Z,100332.86
2019-02-18T10:17:05.492Z,100321.28
2019-02-18T10:18:06.717Z,100329.35
2019-02-18T10:19:07.834Z,100316.92
2019-02-18T10:20:10.154Z,100323.64
2019-02-18T10:21:11.395Z,100324.66
2019-02-18T10:22:12.513Z,100324.14
2019-02-18T10:23:13.733Z,100325.67
2019-02-18T10:24:14.846Z,100320.30
2019-02-18T10:25:15.959Z,100328.86
2019-02-18T10:26:17.089Z,100321.81
2019-02-18T10:27:18.290Z,100324.70
2019-02-18T10:28:19.427Z,100322.00
2019-02-18T10:29:20.541Z,100319.81
2019-02-18T10:30:21.740Z,100317.64
2019-02-18T10:31:22.966Z,100316.62
2019-02-18T10:32:24.081Z,100318.46
2019-02-18T10:33:25.195Z,100313.08
2019-02-18T10:34:26.311Z,100306.69
2019-02-18T10:35:27.462Z,100317.97
2019-02-18T10:36:28.582Z,100309.91
2019-02-18T10:37:29.809Z,100311.25
2019-02-18T10:38:30.918Z,100312.92
2019-02-18T10:39:32.037Z,100309.70
2019-02-18T10:40:33.158Z,100315.08
2019-02-18T10:41:34.493Z,100304.85
2019-02-18T10:42:35.621Z,100307.87
2019-02-18T10:43:36.746Z,100313.25
2019-02-18T10:44:40.246Z,100310.03
2019-02-18T10:45:41.459Z,100304.48
2019-02-18T10:46:42.629Z,100306.85
2019-02-18T10:47:43.747Z,100306.33
2019-02-18T10:48:44.857Z,100297.44
2019-02-18T10:49:45.973Z,100303.14
2019-02-18T10:50:47.098Z,100300.25
2019-02-18T10:51:48.248Z,100303.47
2019-02-18T10:52:49.364Z,100304.81
2019-02-18T10:53:50.890Z,100305.97
2019-02-18T10:54:51.998Z,100305.47
2019-02-18T10:55:53.114Z,100290.16
2019-02-18T10:56:54.277Z,100301.77
2019-02-18T10:57:55.389Z,100312.00
2019-02-18T10:58:56.501Z,100303.44
2019-02-18T10:59:59.303Z,100308.81
2019-02-18T11:01:00.670Z,100298.06
2019-02-18T11:02:01.781Z,100302.59
2019-02-18T11:03:03.299Z,100298.88
2019-02-18T11:04:04.523Z,100298.22
2019-02-18T11:05:06.434Z,100298.55
2019-02-18T11:06:09.365Z,100290.16
2019-02-18T11:07:10.720Z,100281.27
2019-02-18T11:08:11.836Z,100288.80
2019-02-18T11:09:12.961Z,100289.34
2019-02-18T11:10:15.167Z,100278.73
2019-02-18T11:11:17.251Z,100283.30
2019-02-18T11:12:18.725Z,100288.67
2019-02-18T11:13:19.845Z,100286.31
2019-02-18T11:14:21.090Z,100281.10
2019-02-18T11:15:22.185Z,100273.23
2019-02-18T11:16:23.410Z,100274.58
2019-02-18T11:17:24.963Z,100267.52
2019-02-18T11:18:26.184Z,100271.03
2019-02-18T11:19:27.301Z,100261.82
2019-02-18T11:20:28.422Z,100260.97
2019-02-18T11:21:29.637Z,100266.55
2019-02-18T11:22:30.768Z,100257.30
2019-02-18T11:23:31.886Z,100269.40
2019-02-18T11:24:33.002Z,100271.11
2019-02-18T11:25:34.223Z,100267.59
2019-02-18T11:26:35.850Z,100275.01
2019-02-18T11:27:36.986Z,100272.31
2019-02-18T11:28:38.084Z,100270.98
2019-02-18T11:29:39.202Z,100266.58
2019-02-18T11:30:40.413Z,100254.16
2019-02-18T11:31:41.531Z,100259.04
2019-02-18T11:32:42.986Z,100249.30
2019-02-18T11:33:44.115Z,100248.77
2019-02-18T11:34:45.220Z,100251.98
2019-02-18T11:35:46.453Z,100250.64
2019-02-18T11:36:47.587Z,100250.45
2019-02-18T11:37:48.870Z,100250.97
2019-02-18T11:38:49.984Z,100248.61
2019-02-18T11:39:51.101Z,100245.07
2019-02-18T11:40:52.213Z,100244.91
2019-02-18T11:41:53.329Z,100238.34